sensor_id;sensor_type;location;lat;lon;timestamp;P1;durP1;ratioP1;P2;durP2;ratioP2
19800;SDS011;10060;48.274;12.214;2023-05-16T00:01:03;6.67;;;5.03;;
19800;SDS011;10060;48.274;12.214;2023-05-16T00:04:05;6.23;;;4.50;;
19800;SDS011;10060;48.274;12.214;2023-05-16T00:07:07;6.00;;;5.13;;
19800;SDS011;10060;48.274;12.214;2023-05-16T00:10:11;6.57;;;5.50;;
19800;SDS011;10060;48.274;12.214;2023-05-16T00:13:13;6.17;;;5.10;;
19800;SDS011;10060;48.274;12.214;2023-05-16T00:16:15;5.80;;;5.20;;
19800;SDS011;10060;48.274;12.214;2023-05-16T00:19:17;6.77;;;5.40;;
19800;SDS011;10060;48.274;12.214;2023-05-16T00:22:20;7.20;;;5.27;;
19800;SDS011;10060;48.274;12.214;2023-05-16T00:25:23;9.67;;;5.47;;
19800;SDS011;10060;48.274;12.214;2023-05-16T00:28:26;5.80;;;5.20;;
19800;SDS011;10060;48.274;12.214;2023-05-16T00:31:28;5.73;;;5.07;;
19800;SDS011;10060;48.274;12.214;2023-05-16T00:34:30;7.13;;;5.30;;
19800;SDS011;10060;48.274;12.214;2023-05-16T00:37:32;6.90;;;5.40;;
19800;SDS011;10060;48.274;12.214;2023-05-16T00:40:35;8.67;;;5.40;;
19800;SDS011;10060;48.274;12.214;2023-05-16T00:43:39;6.37;;;5.53;;
19800;SDS011;10060;48.274;12.214;2023-05-16T00:46:41;6.67;;;5.33;;
19800;SDS011;10060;48.274;12.214;2023-05-16T00:49:43;6.27;;;5.67;;
19800;SDS011;10060;48.274;12.214;2023-05-16T00:52:45;6.40;;;5.70;;
19800;SDS011;10060;48.274;12.214;2023-05-16T00:55:49;7.30;;;5.47;;
19800;SDS011;10060;48.274;12.214;2023-05-16T00:58:52;10.33;;;6.30;;
19800;SDS011;10060;48.274;12.214;2023-05-16T01:01:54;8.67;;;5.40;;
19800;SDS011;10060;48.274;12.214;2023-05-16T01:04:56;9.20;;;5.90;;
19800;SDS011;10060;48.274;12.214;2023-05-16T01:07:59;6.33;;;5.73;;
19800;SDS011;10060;48.274;12.214;2023-05-16T01:11:04;6.60;;;5.87;;
19800;SDS011;10060;48.274;12.214;2023-05-16T01:14:10;7.87;;;6.03;;
19800;SDS011;10060;48.274;12.214;2023-05-16T01:17:14;9.70;;;6.50;;
19800;SDS011;10060;48.274;12.214;2023-05-16T01:20:23;10.63;;;6.50;;
19800;SDS011;10060;48.274;12.214;2023-05-16T01:23:32;8.63;;;6.17;;
19800;SDS011;10060;48.274;12.214;2023-05-16T01:26:39;8.73;;;6.00;;
19800;SDS011;10060;48.274;12.214;2023-05-16T01:29:42;8.10;;;6.10;;
19800;SDS011;10060;48.274;12.214;2023-05-16T01:32:44;6.87;;;6.13;;
19800;SDS011;10060;48.274;12.214;2023-05-16T01:35:50;7.57;;;6.60;;
19800;SDS011;10060;48.274;12.214;2023-05-16T01:39:01;7.93;;;6.13;;
19800;SDS011;10060;48.274;12.214;2023-05-16T01:42:06;6.50;;;5.73;;
19800;SDS011;10060;48.274;12.214;2023-05-16T01:45:11;7.90;;;6.03;;
19800;SDS011;10060;48.274;12.214;2023-05-16T01:48:16;9.33;;;7.07;;
19800;SDS011;10060;48.274;12.214;2023-05-16T01:51:21;7.20;;;6.30;;
19800;SDS011;10060;48.274;12.214;2023-05-16T01:54:24;7.53;;;6.73;;
19800;SDS011;10060;48.274;12.214;2023-05-16T01:57:28;7.73;;;6.73;;
19800;SDS011;10060;48.274;12.214;2023-05-16T02:00:30;8.47;;;6.53;;
19800;SDS011;10060;48.274;12.214;2023-05-16T02:03:32;8.20;;;6.60;;
19800;SDS011;10060;48.274;12.214;2023-05-16T02:06:35;8.90;;;6.57;;
19800;SDS011;10060;48.274;12.214;2023-05-16T02:09:37;6.93;;;6.17;;
19800;SDS011;10060;48.274;12.214;2023-05-16T02:12:40;7.93;;;6.63;;
19800;SDS011;10060;48.274;12.214;2023-05-16T02:15:43;8.90;;;6.80;;
19800;SDS011;10060;48.274;12.214;2023-05-16T02:18:45;9.00;;;6.30;;
19800;SDS011;10060;48.274;12.214;2023-05-16T02:21:47;8.77;;;7.37;;
19800;SDS011;10060;48.274;12.214;2023-05-16T02:24:49;10.20;;;7.63;;
19800;SDS011;10060;48.274;12.214;2023-05-16T02:27:53;8.20;;;6.83;;
19800;SDS011;10060;48.274;12.214;2023-05-16T02:30:56;8.77;;;7.33;;
19800;SDS011;10060;48.274;12.214;2023-05-16T02:33:58;8.43;;;7.30;;
19800;SDS011;10060;48.274;12.214;2023-05-16T02:37:00;7.80;;;6.43;;
19800;SDS011;10060;48.274;12.214;2023-05-16T02:40:03;8.17;;;6.30;;
19800;SDS011;10060;48.274;12.214;2023-05-16T02:43:07;7.03;;;6.30;;
19800;SDS011;10060;48.274;12.214;2023-05-16T02:46:19;9.80;;;7.00;;
19800;SDS011;10060;48.274;12.214;2023-05-16T02:49:21;9.03;;;6.60;;
19800;SDS011;10060;48.274;12.214;2023-05-16T02:52:23;9.37;;;6.77;;
19800;SDS011;10060;48.274;12.214;2023-05-16T02:55:25;7.70;;;6.20;;
19800;SDS011;10060;48.274;12.214;2023-05-16T02:58:31;8.10;;;6.77;;
19800;SDS011;10060;48.274;12.214;2023-05-16T03:01:33;7.63;;;6.17;;
19800;SDS011;10060;48.274;12.214;2023-05-16T03:04:36;8.43;;;6.43;;
19800;SDS011;10060;48.274;12.214;2023-05-16T03:07:38;9.23;;;6.67;;
19800;SDS011;10060;48.274;12.214;2023-05-16T03:10:40;7.73;;;6.20;;
19800;SDS011;10060;48.274;12.214;2023-05-16T03:13:43;8.80;;;7.17;;
19800;SDS011;10060;48.274;12.214;2023-05-16T03:16:46;9.00;;;7.60;;
19800;SDS011;10060;48.274;12.214;2023-05-16T03:19:48;11.93;;;7.43;;
19800;SDS011;10060;48.274;12.214;2023-05-16T03:22:50;8.83;;;7.20;;
19800;SDS011;10060;48.274;12.214;2023-05-16T03:25:52;11.53;;;6.93;;
19800;SDS011;10060;48.274;12.214;2023-05-16T03:28:56;8.43;;;6.43;;
19800;SDS011;10060;48.274;12.214;2023-05-16T03:31:58;10.90;;;7.73;;
19800;SDS011;10060;48.274;12.214;2023-05-16T03:35:00;9.37;;;7.43;;
19800;SDS011;10060;48.274;12.214;2023-05-16T03:38:02;11.47;;;8.40;;
19800;SDS011;10060;48.274;12.214;2023-05-16T03:41:05;11.03;;;7.47;;
19800;SDS011;10060;48.274;12.214;2023-05-16T03:44:08;8.80;;;7.43;;
19800;SDS011;10060;48.274;12.214;2023-05-16T03:47:10;8.97;;;7.33;;
19800;SDS011;10060;48.274;12.214;2023-05-16T03:50:12;9.00;;;6.83;;
19800;SDS011;10060;48.274;12.214;2023-05-16T03:53:15;8.93;;;7.27;;
19800;SDS011;10060;48.274;12.214;2023-05-16T03:56:17;9.93;;;8.07;;
19800;SDS011;10060;48.274;12.214;2023-05-16T03:59:22;10.17;;;7.67;;
19800;SDS011;10060;48.274;12.214;2023-05-16T04:02:24;9.17;;;7.73;;
19800;SDS011;10060;48.274;12.214;2023-05-16T04:05:26;9.80;;;7.97;;
19800;SDS011;10060;48.274;12.214;2023-05-16T04:08:28;10.80;;;8.07;;
19800;SDS011;10060;48.274;12.214;2023-05-16T04:11:30;10.53;;;8.10;;
19800;SDS011;10060;48.274;12.214;2023-05-16T04:14:34;11.00;;;7.93;;
19800;SDS011;10060;48.274;12.214;2023-05-16T04:17:36;10.57;;;8.13;;
19800;SDS011;10060;48.274;12.214;2023-05-16T04:20:40;10.80;;;8.33;;
19800;SDS011;10060;48.274;12.214;2023-05-16T04:23:42;11.87;;;8.17;;
19800;SDS011;10060;48.274;12.214;2023-05-16T04:26:44;9.90;;;8.00;;
19800;SDS011;10060;48.274;12.214;2023-05-16T04:29:48;12.37;;;8.27;;
19800;SDS011;10060;48.274;12.214;2023-05-16T04:32:50;9.47;;;7.77;;
19800;SDS011;10060;48.274;12.214;2023-05-16T04:35:52;10.60;;;7.77;;
19800;SDS011;10060;48.274;12.214;2023-05-16T04:38:57;10.43;;;8.43;;
19800;SDS011;10060;48.274;12.214;2023-05-16T04:41:59;10.43;;;7.90;;
19800;SDS011;10060;48.274;12.214;2023-05-16T04:45:04;12.00;;;8.10;;
19800;SDS011;10060;48.274;12.214;2023-05-16T04:48:09;12.07;;;7.63;;
19800;SDS011;10060;48.274;12.214;2023-05-16T04:51:12;12.13;;;8.00;;
19800;SDS011;10060;48.274;12.214;2023-05-16T04:54:14;11.57;;;8.33;;
19800;SDS011;10060;48.274;12.214;2023-05-16T04:57:16;11.17;;;8.73;;
19800;SDS011;10060;48.274;12.214;2023-05-16T05:00:20;11.73;;;8.43;;
19800;SDS011;10060;48.274;12.214;2023-05-16T05:03:22;13.07;;;9.20;;
19800;SDS011;10060;48.274;12.214;2023-05-16T05:06:24;13.53;;;9.80;;
19800;SDS011;10060;48.274;12.214;2023-05-16T05:09:26;13.57;;;9.97;;
19800;SDS011;10060;48.274;12.214;2023-05-16T05:12:28;15.87;;;9.80;;
19800;SDS011;10060;48.274;12.214;2023-05-16T05:15:32;15.43;;;10.50;;
19800;SDS011;10060;48.274;12.214;2023-05-16T05:18:34;16.20;;;10.90;;
19800;SDS011;10060;48.274;12.214;2023-05-16T05:21:36;17.87;;;10.80;;
19800;SDS011;10060;48.274;12.214;2023-05-16T05:24:38;17.43;;;11.17;;
19800;SDS011;10060;48.274;12.214;2023-05-16T05:27:40;16.97;;;11.50;;
19800;SDS011;10060;48.274;12.214;2023-05-16T05:30:43;17.57;;;11.00;;
19800;SDS011;10060;48.274;12.214;2023-05-16T05:33:47;18.67;;;12.43;;
19800;SDS011;10060;48.274;12.214;2023-05-16T05:36:49;17.33;;;12.23;;
19800;SDS011;10060;48.274;12.214;2023-05-16T05:39:51;15.17;;;11.27;;
19800;SDS011;10060;48.274;12.214;2023-05-16T05:42:53;18.53;;;12.73;;
19800;SDS011;10060;48.274;12.214;2023-05-16T05:45:57;17.83;;;12.50;;
19800;SDS011;10060;48.274;12.214;2023-05-16T05:48:59;15.67;;;11.80;;
19800;SDS011;10060;48.274;12.214;2023-05-16T05:52:01;16.13;;;11.67;;
19800;SDS011;10060;48.274;12.214;2023-05-16T05:55:03;16.60;;;13.13;;
19800;SDS011;10060;48.274;12.214;2023-05-16T05:58:05;15.37;;;12.23;;
19800;SDS011;10060;48.274;12.214;2023-05-16T06:01:09;15.47;;;10.73;;
19800;SDS011;10060;48.274;12.214;2023-05-16T06:04:11;16.50;;;12.23;;
19800;SDS011;10060;48.274;12.214;2023-05-16T06:07:13;19.37;;;11.53;;
19800;SDS011;10060;48.274;12.214;2023-05-16T06:10:17;16.57;;;11.47;;
19800;SDS011;10060;48.274;12.214;2023-05-16T06:13:19;14.20;;;10.63;;
19800;SDS011;10060;48.274;12.214;2023-05-16T06:16:24;14.10;;;11.37;;
19800;SDS011;10060;48.274;12.214;2023-05-16T06:19:26;15.07;;;10.87;;
19800;SDS011;10060;48.274;12.214;2023-05-16T06:22:29;14.67;;;11.30;;
19800;SDS011;10060;48.274;12.214;2023-05-16T06:25:31;15.80;;;11.37;;
19800;SDS011;10060;48.274;12.214;2023-05-16T06:28:33;14.30;;;11.20;;
19800;SDS011;10060;48.274;12.214;2023-05-16T06:31:37;14.67;;;11.33;;
19800;SDS011;10060;48.274;12.214;2023-05-16T06:34:39;17.93;;;12.27;;
19800;SDS011;10060;48.274;12.214;2023-05-16T06:37:41;16.00;;;11.47;;
19800;SDS011;10060;48.274;12.214;2023-05-16T06:40:43;15.17;;;12.57;;
19800;SDS011;10060;48.274;12.214;2023-05-16T06:43:45;16.07;;;11.30;;
19800;SDS011;10060;48.274;12.214;2023-05-16T06:46:49;18.70;;;11.73;;
19800;SDS011;10060;48.274;12.214;2023-05-16T06:49:51;14.87;;;11.70;;
19800;SDS011;10060;48.274;12.214;2023-05-16T06:52:54;17.00;;;11.70;;
19800;SDS011;10060;48.274;12.214;2023-05-16T06:55:56;16.47;;;11.57;;
19800;SDS011;10060;48.274;12.214;2023-05-16T06:58:58;14.97;;;11.27;;
19800;SDS011;10060;48.274;12.214;2023-05-16T07:02:02;15.13;;;11.77;;
19800;SDS011;10060;48.274;12.214;2023-05-16T07:05:05;15.87;;;11.00;;
19800;SDS011;10060;48.274;12.214;2023-05-16T07:08:07;18.17;;;11.63;;
19800;SDS011;10060;48.274;12.214;2023-05-16T07:11:11;17.93;;;12.43;;
19800;SDS011;10060;48.274;12.214;2023-05-16T07:14:13;17.00;;;12.43;;
19800;SDS011;10060;48.274;12.214;2023-05-16T07:17:16;15.97;;;12.17;;
19800;SDS011;10060;48.274;12.214;2023-05-16T07:20:18;16.27;;;12.30;;
19800;SDS011;10060;48.274;12.214;2023-05-16T07:23:21;16.93;;;12.13;;
19800;SDS011;10060;48.274;12.214;2023-05-16T07:26:23;14.83;;;12.33;;
19800;SDS011;10060;48.274;12.214;2023-05-16T07:29:25;15.37;;;12.27;;
19800;SDS011;10060;48.274;12.214;2023-05-16T07:32:30;15.97;;;12.20;;
19800;SDS011;10060;48.274;12.214;2023-05-16T07:35:32;15.47;;;12.47;;
19800;SDS011;10060;48.274;12.214;2023-05-16T07:38:34;14.33;;;12.17;;
19800;SDS011;10060;48.274;12.214;2023-05-16T07:41:37;14.53;;;12.73;;
19800;SDS011;10060;48.274;12.214;2023-05-16T07:44:39;19.03;;;13.40;;
19800;SDS011;10060;48.274;12.214;2023-05-16T07:47:42;16.30;;;13.27;;
19800;SDS011;10060;48.274;12.214;2023-05-16T07:50:44;18.03;;;13.20;;
19800;SDS011;10060;48.274;12.214;2023-05-16T07:53:46;16.67;;;13.03;;
19800;SDS011;10060;48.274;12.214;2023-05-16T07:56:48;17.20;;;13.10;;
19800;SDS011;10060;48.274;12.214;2023-05-16T07:59:50;16.50;;;12.60;;
19800;SDS011;10060;48.274;12.214;2023-05-16T08:02:54;15.80;;;13.30;;
19800;SDS011;10060;48.274;12.214;2023-05-16T08:05:56;15.87;;;13.27;;
19800;SDS011;10060;48.274;12.214;2023-05-16T08:08:58;16.47;;;14.10;;
19800;SDS011;10060;48.274;12.214;2023-05-16T08:12:00;19.07;;;13.23;;
19800;SDS011;10060;48.274;12.214;2023-05-16T08:15:03;18.30;;;14.30;;
19800;SDS011;10060;48.274;12.214;2023-05-16T08:18:11;16.63;;;12.50;;
19800;SDS011;10060;48.274;12.214;2023-05-16T08:21:13;15.27;;;13.47;;
19800;SDS011;10060;48.274;12.214;2023-05-16T08:24:15;17.93;;;12.57;;
19800;SDS011;10060;48.274;12.214;2023-05-16T08:27:17;16.33;;;12.40;;
19800;SDS011;10060;48.274;12.214;2023-05-16T08:30:19;15.57;;;12.93;;
19800;SDS011;10060;48.274;12.214;2023-05-16T08:33:23;14.37;;;12.23;;
19800;SDS011;10060;48.274;12.214;2023-05-16T08:36:25;16.80;;;13.30;;
19800;SDS011;10060;48.274;12.214;2023-05-16T08:39:27;15.93;;;13.23;;
19800;SDS011;10060;48.274;12.214;2023-05-16T08:42:30;17.53;;;13.57;;
19800;SDS011;10060;48.274;12.214;2023-05-16T08:45:32;19.23;;;13.37;;
19800;SDS011;10060;48.274;12.214;2023-05-16T08:48:35;16.07;;;13.40;;
19800;SDS011;10060;48.274;12.214;2023-05-16T08:51:39;15.50;;;13.43;;
19800;SDS011;10060;48.274;12.214;2023-05-16T08:54:41;19.70;;;13.63;;
19800;SDS011;10060;48.274;12.214;2023-05-16T08:57:44;19.00;;;14.03;;
19800;SDS011;10060;48.274;12.214;2023-05-16T09:00:46;15.02;;;13.40;;
19800;SDS011;10060;48.274;12.214;2023-05-16T09:03:50;18.02;;;13.13;;
19800;SDS011;10060;48.274;12.214;2023-05-16T09:06:52;16.37;;;13.30;;
19800;SDS011;10060;48.274;12.214;2023-05-16T09:09:55;14.90;;;12.73;;
19800;SDS011;10060;48.274;12.214;2023-05-16T09:12:57;18.67;;;14.33;;
19800;SDS011;10060;48.274;12.214;2023-05-16T09:16:09;16.92;;;13.38;;
19800;SDS011;10060;48.274;12.214;2023-05-16T09:19:13;17.45;;;13.77;;
19800;SDS011;10060;48.274;12.214;2023-05-16T09:22:15;18.45;;;13.95;;
19800;SDS011;10060;48.274;12.214;2023-05-16T09:25:17;16.67;;;13.68;;
19800;SDS011;10060;48.274;12.214;2023-05-16T09:28:19;17.35;;;14.75;;
19800;SDS011;10060;48.274;12.214;2023-05-16T09:31:23;18.40;;;14.38;;
19800;SDS011;10060;48.274;12.214;2023-05-16T09:34:27;17.50;;;14.95;;
19800;SDS011;10060;48.274;12.214;2023-05-16T09:37:29;18.58;;;14.50;;
19800;SDS011;10060;48.274;12.214;2023-05-16T09:40:31;19.92;;;15.15;;
19800;SDS011;10060;48.274;12.214;2023-05-16T09:43:36;18.88;;;15.52;;
19800;SDS011;10060;48.274;12.214;2023-05-16T09:46:38;19.63;;;15.90;;
19800;SDS011;10060;48.274;12.214;2023-05-16T09:49:42;16.90;;;14.30;;
19800;SDS011;10060;48.274;12.214;2023-05-16T09:52:44;18.08;;;15.25;;
19800;SDS011;10060;48.274;12.214;2023-05-16T09:55:46;18.05;;;14.90;;
19800;SDS011;10060;48.274;12.214;2023-05-16T09:58:50;26.50;;;15.02;;
19800;SDS011;10060;48.274;12.214;2023-05-16T10:01:52;20.25;;;14.90;;
19800;SDS011;10060;48.274;12.214;2023-05-16T10:04:57;18.15;;;14.55;;
19800;SDS011;10060;48.274;12.214;2023-05-16T10:07:59;20.33;;;14.45;;
19800;SDS011;10060;48.274;12.214;2023-05-16T10:11:03;17.83;;;14.45;;
19800;SDS011;10060;48.274;12.214;2023-05-16T10:14:06;17.30;;;14.63;;
19800;SDS011;10060;48.274;12.214;2023-05-16T10:17:09;16.33;;;13.23;;
19800;SDS011;10060;48.274;12.214;2023-05-16T10:20:14;17.55;;;14.30;;
19800;SDS011;10060;48.274;12.214;2023-05-16T10:23:17;17.05;;;14.07;;
19800;SDS011;10060;48.274;12.214;2023-05-16T10:26:20;16.98;;;13.52;;
19800;SDS011;10060;48.274;12.214;2023-05-16T10:29:23;16.45;;;14.05;;
19800;SDS011;10060;48.274;12.214;2023-05-16T10:32:25;16.95;;;14.38;;
19800;SDS011;10060;48.274;12.214;2023-05-16T10:35:30;17.83;;;14.60;;
19800;SDS011;10060;48.274;12.214;2023-05-16T10:38:32;18.48;;;13.65;;
19800;SDS011;10060;48.274;12.214;2023-05-16T10:41:34;21.05;;;14.68;;
19800;SDS011;10060;48.274;12.214;2023-05-16T10:44:37;18.55;;;14.82;;
19800;SDS011;10060;48.274;12.214;2023-05-16T10:47:40;17.45;;;15.05;;
19800;SDS011;10060;48.274;12.214;2023-05-16T10:50:44;16.50;;;13.68;;
19800;SDS011;10060;48.274;12.214;2023-05-16T10:53:46;19.02;;;14.57;;
19800;SDS011;10060;48.274;12.214;2023-05-16T10:56:53;18.42;;;15.20;;
19800;SDS011;10060;48.274;12.214;2023-05-16T10:59:56;19.38;;;14.57;;
19800;SDS011;10060;48.274;12.214;2023-05-16T11:03:03;18.67;;;15.23;;
19800;SDS011;10060;48.274;12.214;2023-05-16T11:06:07;21.25;;;15.35;;
19800;SDS011;10060;48.274;12.214;2023-05-16T11:09:16;17.17;;;14.60;;
19800;SDS011;10060;48.274;12.214;2023-05-16T11:12:21;19.65;;;14.50;;
19800;SDS011;10060;48.274;12.214;2023-05-16T11:15:23;19.67;;;14.55;;
19800;SDS011;10060;48.274;12.214;2023-05-16T11:18:26;21.75;;;15.55;;
19800;SDS011;10060;48.274;12.214;2023-05-16T11:24:56;19.48;;;14.77;;
19800;SDS011;10060;48.274;12.214;2023-05-16T11:27:58;17.88;;;14.32;;
19800;SDS011;10060;48.274;12.214;2023-05-16T11:31:00;19.92;;;14.65;;
19800;SDS011;10060;48.274;12.214;2023-05-16T11:34:04;18.23;;;14.98;;
19800;SDS011;10060;48.274;12.214;2023-05-16T11:37:09;18.85;;;15.50;;
19800;SDS011;10060;48.274;12.214;2023-05-16T11:40:13;19.52;;;14.93;;
19800;SDS011;10060;48.274;12.214;2023-05-16T11:43:17;23.75;;;14.88;;
19800;SDS011;10060;48.274;12.214;2023-05-16T11:46:19;18.13;;;14.32;;
19800;SDS011;10060;48.274;12.214;2023-05-16T11:49:21;23.13;;;15.23;;
19800;SDS011;10060;48.274;12.214;2023-05-16T11:52:23;18.98;;;14.95;;
19800;SDS011;10060;48.274;12.214;2023-05-16T11:55:28;21.60;;;15.43;;
19800;SDS011;10060;48.274;12.214;2023-05-16T11:58:31;21.58;;;15.88;;
19800;SDS011;10060;48.274;12.214;2023-05-16T12:01:34;22.55;;;15.63;;
19800;SDS011;10060;48.274;12.214;2023-05-16T12:04:36;19.73;;;15.48;;
19800;SDS011;10060;48.274;12.214;2023-05-16T12:07:38;18.70;;;14.25;;
19800;SDS011;10060;48.274;12.214;2023-05-16T12:10:42;21.85;;;16.05;;
19800;SDS011;10060;48.274;12.214;2023-05-16T12:13:44;19.10;;;16.05;;
19800;SDS011;10060;48.274;12.214;2023-05-16T12:16:46;19.55;;;14.95;;
19800;SDS011;10060;48.274;12.214;2023-05-16T12:19:49;18.85;;;14.68;;
19800;SDS011;10060;48.274;12.214;2023-05-16T12:22:51;20.67;;;15.00;;
19800;SDS011;10060;48.274;12.214;2023-05-16T12:25:55;17.58;;;13.98;;
19800;SDS011;10060;48.274;12.214;2023-05-16T12:29:00;20.08;;;14.27;;
19800;SDS011;10060;48.274;12.214;2023-05-16T12:32:06;19.90;;;14.63;;
19800;SDS011;10060;48.274;12.214;2023-05-16T12:35:09;17.67;;;14.68;;
19800;SDS011;10060;48.274;12.214;2023-05-16T12:38:12;17.42;;;14.10;;
19800;SDS011;10060;48.274;12.214;2023-05-16T12:41:18;18.20;;;13.90;;
19800;SDS011;10060;48.274;12.214;2023-05-16T12:44:20;16.55;;;14.45;;
19800;SDS011;10060;48.274;12.214;2023-05-16T12:47:33;17.83;;;13.70;;
19800;SDS011;10060;48.274;12.214;2023-05-16T12:50:35;19.38;;;14.25;;
19800;SDS011;10060;48.274;12.214;2023-05-16T12:53:42;19.80;;;15.27;;
19800;SDS011;10060;48.274;12.214;2023-05-16T12:56:46;21.45;;;14.60;;
19800;SDS011;10060;48.274;12.214;2023-05-16T12:59:48;17.52;;;14.07;;
19800;SDS011;10060;48.274;12.214;2023-05-16T13:02:50;15.48;;;12.82;;
19800;SDS011;10060;48.274;12.214;2023-05-16T13:05:53;15.10;;;12.07;;
19800;SDS011;10060;48.274;12.214;2023-05-16T13:08:55;18.75;;;13.27;;
19800;SDS011;10060;48.274;12.214;2023-05-16T13:11:59;17.08;;;13.23;;
19800;SDS011;10060;48.274;12.214;2023-05-16T13:15:01;19.58;;;13.73;;
19800;SDS011;10060;48.274;12.214;2023-05-16T13:18:05;14.48;;;12.07;;
19800;SDS011;10060;48.274;12.214;2023-05-16T13:21:08;14.00;;;11.75;;
19800;SDS011;10060;48.274;12.214;2023-05-16T13:24:10;14.02;;;11.93;;
19800;SDS011;10060;48.274;12.214;2023-05-16T13:27:15;15.40;;;12.07;;
19800;SDS011;10060;48.274;12.214;2023-05-16T13:30:17;16.73;;;12.80;;
19800;SDS011;10060;48.274;12.214;2023-05-16T13:33:20;18.52;;;12.52;;
19800;SDS011;10060;48.274;12.214;2023-05-16T13:36:23;18.25;;;13.50;;
19800;SDS011;10060;48.274;12.214;2023-05-16T13:39:25;15.27;;;11.75;;
19800;SDS011;10060;48.274;12.214;2023-05-16T13:42:29;12.88;;;10.93;;
19800;SDS011;10060;48.274;12.214;2023-05-16T13:45:31;9.45;;;5.22;;
19800;SDS011;10060;48.274;12.214;2023-05-16T13:48:33;11.20;;;5.90;;
19800;SDS011;10060;48.274;12.214;2023-05-16T13:51:35;7.55;;;5.72;;
19800;SDS011;10060;48.274;12.214;2023-05-16T13:54:38;7.75;;;6.32;;
19800;SDS011;10060;48.274;12.214;2023-05-16T13:57:41;9.95;;;6.72;;
19800;SDS011;10060;48.274;12.214;2023-05-16T14:00:43;9.07;;;6.88;;
19800;SDS011;10060;48.274;12.214;2023-05-16T14:03:46;7.68;;;6.22;;
19800;SDS011;10060;48.274;12.214;2023-05-16T14:06:48;9.97;;;6.60;;
19800;SDS011;10060;48.274;12.214;2023-05-16T14:09:50;8.93;;;6.47;;
19800;SDS011;10060;48.274;12.214;2023-05-16T14:12:53;12.10;;;6.77;;
19800;SDS011;10060;48.274;12.214;2023-05-16T14:15:56;8.17;;;7.33;;
19800;SDS011;10060;48.274;12.214;2023-05-16T14:18:58;11.37;;;8.67;;
19800;SDS011;10060;48.274;12.214;2023-05-16T14:22:00;16.10;;;8.30;;
19800;SDS011;10060;48.274;12.214;2023-05-16T14:25:02;8.70;;;7.17;;
19800;SDS011;10060;48.274;12.214;2023-05-16T14:28:06;10.73;;;9.00;;
19800;SDS011;10060;48.274;12.214;2023-05-16T14:31:08;12.63;;;8.63;;
19800;SDS011;10060;48.274;12.214;2023-05-16T14:34:10;12.33;;;8.73;;
19800;SDS011;10060;48.274;12.214;2023-05-16T14:37:13;11.43;;;9.30;;
19800;SDS011;10060;48.274;12.214;2023-05-16T14:40:15;10.63;;;8.60;;
19800;SDS011;10060;48.274;12.214;2023-05-16T14:43:18;12.43;;;8.47;;
19800;SDS011;10060;48.274;12.214;2023-05-16T14:46:20;15.07;;;8.23;;
19800;SDS011;10060;48.274;12.214;2023-05-16T14:49:22;9.10;;;8.20;;
19800;SDS011;10060;48.274;12.214;2023-05-16T14:52:24;10.07;;;8.43;;
19800;SDS011;10060;48.274;12.214;2023-05-16T14:55:27;8.90;;;8.00;;
19800;SDS011;10060;48.274;12.214;2023-05-16T14:58:30;11.13;;;8.67;;
19800;SDS011;10060;48.274;12.214;2023-05-16T15:01:32;9.53;;;7.57;;
19800;SDS011;10060;48.274;12.214;2023-05-16T15:04:34;9.80;;;8.53;;
19800;SDS011;10060;48.274;12.214;2023-05-16T15:07:36;12.87;;;8.70;;
19800;SDS011;10060;48.274;12.214;2023-05-16T15:10:39;12.17;;;8.50;;
19800;SDS011;10060;48.274;12.214;2023-05-16T15:13:42;11.17;;;8.47;;
19800;SDS011;10060;48.274;12.214;2023-05-16T15:16:45;12.57;;;8.37;;
19800;SDS011;10060;48.274;12.214;2023-05-16T15:19:47;9.57;;;7.93;;
19800;SDS011;10060;48.274;12.214;2023-05-16T15:22:52;11.60;;;8.30;;
19800;SDS011;10060;48.274;12.214;2023-05-16T15:25:54;11.47;;;8.47;;
19800;SDS011;10060;48.274;12.214;2023-05-16T15:28:57;10.37;;;8.53;;
19800;SDS011;10060;48.274;12.214;2023-05-16T15:32:01;10.87;;;9.20;;
19800;SDS011;10060;48.274;12.214;2023-05-16T15:35:04;10.37;;;8.97;;
19800;SDS011;10060;48.274;12.214;2023-05-16T15:38:06;9.90;;;8.60;;
19800;SDS011;10060;48.274;12.214;2023-05-16T15:41:08;11.40;;;9.00;;
19800;SDS011;10060;48.274;12.214;2023-05-16T15:44:12;12.80;;;8.73;;
19800;SDS011;10060;48.274;12.214;2023-05-16T15:47:14;9.97;;;8.97;;
19800;SDS011;10060;48.274;12.214;2023-05-16T15:50:16;12.13;;;9.03;;
19800;SDS011;10060;48.274;12.214;2023-05-16T15:53:18;15.37;;;10.43;;
19800;SDS011;10060;48.274;12.214;2023-05-16T15:56:20;11.00;;;9.27;;
19800;SDS011;10060;48.274;12.214;2023-05-16T15:59:24;12.40;;;9.23;;
19800;SDS011;10060;48.274;12.214;2023-05-16T16:02:26;11.40;;;9.27;;
19800;SDS011;10060;48.274;12.214;2023-05-16T16:05:28;12.00;;;9.37;;
19800;SDS011;10060;48.274;12.214;2023-05-16T16:08:30;13.27;;;10.00;;
19800;SDS011;10060;48.274;12.214;2023-05-16T16:11:32;11.10;;;9.90;;
19800;SDS011;10060;48.274;12.214;2023-05-16T16:14:37;11.80;;;9.60;;
19800;SDS011;10060;48.274;12.214;2023-05-16T16:17:39;14.73;;;11.00;;
19800;SDS011;10060;48.274;12.214;2023-05-16T16:20:41;12.93;;;10.30;;
19800;SDS011;10060;48.274;12.214;2023-05-16T16:23:43;12.37;;;10.17;;
19800;SDS011;10060;48.274;12.214;2023-05-16T16:26:45;12.80;;;10.83;;
19800;SDS011;10060;48.274;12.214;2023-05-16T16:29:48;15.63;;;10.87;;
19800;SDS011;10060;48.274;12.214;2023-05-16T16:32:50;13.43;;;11.00;;
19800;SDS011;10060;48.274;12.214;2023-05-16T16:35:52;14.33;;;11.07;;
19800;SDS011;10060;48.274;12.214;2023-05-16T16:38:55;16.30;;;10.50;;
19800;SDS011;10060;48.274;12.214;2023-05-16T16:41:57;19.20;;;11.60;;
19800;SDS011;10060;48.274;12.214;2023-05-16T16:45:00;14.60;;;11.47;;
19800;SDS011;10060;48.274;12.214;2023-05-16T16:48:03;14.50;;;11.63;;
19800;SDS011;10060;48.274;12.214;2023-05-16T16:51:05;12.33;;;10.77;;
19800;SDS011;10060;48.274;12.214;2023-05-16T16:54:07;13.37;;;11.23;;
19800;SDS011;10060;48.274;12.214;2023-05-16T16:57:09;14.13;;;10.70;;
19800;SDS011;10060;48.274;12.214;2023-05-16T17:00:13;15.73;;;10.77;;
19800;SDS011;10060;48.274;12.214;2023-05-16T17:03:16;12.93;;;9.57;;
19800;SDS011;10060;48.274;12.214;2023-05-16T17:06:18;13.83;;;10.77;;
19800;SDS011;10060;48.274;12.214;2023-05-16T17:09:20;17.63;;;10.63;;
19800;SDS011;10060;48.274;12.214;2023-05-16T17:12:24;13.60;;;10.50;;
19800;SDS011;10060;48.274;12.214;2023-05-16T17:15:29;19.30;;;10.30;;
19800;SDS011;10060;48.274;12.214;2023-05-16T17:18:31;14.93;;;10.17;;
19800;SDS011;10060;48.274;12.214;2023-05-16T17:21:35;15.80;;;11.43;;
19800;SDS011;10060;48.274;12.214;2023-05-16T17:24:39;14.20;;;11.10;;
19800;SDS011;10060;48.274;12.214;2023-05-16T17:27:41;15.73;;;11.33;;
19800;SDS011;10060;48.274;12.214;2023-05-16T17:30:45;13.57;;;11.53;;
19800;SDS011;10060;48.274;12.214;2023-05-16T17:33:47;14.83;;;11.43;;
19800;SDS011;10060;48.274;12.214;2023-05-16T17:36:50;17.67;;;11.63;;
19800;SDS011;10060;48.274;12.214;2023-05-16T17:39:52;15.47;;;11.37;;
19800;SDS011;10060;48.274;12.214;2023-05-16T17:42:54;13.83;;;10.80;;
19800;SDS011;10060;48.274;12.214;2023-05-16T17:45:58;13.40;;;10.90;;
19800;SDS011;10060;48.274;12.214;2023-05-16T17:49:00;14.10;;;11.70;;